Time;durP1;ratioP1;P1;durP2;ratioP2;P2;SDS_P1;SDS_P2;PMS_P1;PMS_P2;Temp;Humidity;BMP_temperature;BMP_pressure;BME280_temperature;BME280_humidity;BME280_pressure;Samples;Min_cycle;Max_cycle;Signal;HPM_P1;HPM_P2
2020/12/13 00:02:03;;;;;;;27.73;18.27;;;;;;;7.01;69.97;93945.69;5093156;28;20318;-66
2020/12/13 00:04:30;;;;;;;27.63;18.52;;;;;;;7.09;69.65;93955.63;5092798;28;20567;-68
2020/12/13 00:06:56;;;;;;;27.00;18.88;;;;;;;7.08;69.96;93961.88;5093181;28;20665;-66
2020/12/13 00:09:22;;;;;;;34.45;18.85;;;;;;;7.17;69.23;93960.31;5092149;28;20282;-67
2020/12/13 00:11:49;;;;;;;28.67;19.33;;;;;;;6.93;70.42;93964.41;5093162;28;20587;-66
2020/12/13 00:14:15;;;;;;;27.10;18.48;;;;;;;7.11;69.99;93957.97;5092552;28;20176;-67
2020/12/13 00:16:42;;;;;;;26.02;18.70;;;;;;;7.09;69.75;93963.44;5093139;28;20273;-65
2020/12/13 00:19:08;;;;;;;28.15;19.00;;;;;;;7.17;69.94;93965.53;5092362;28;20209;-65
2020/12/13 00:21:35;;;;;;;27.10;19.15;;;;;;;7.13;69.46;93966.31;5092654;28;20809;-67
2020/12/13 00:24:01;;;;;;;28.45;19.25;;;;;;;7.11;70.00;93965.78;5092188;28;20226;-66
2020/12/13 00:26:28;;;;;;;28.52;19.10;;;;;;;7.17;69.72;93960.31;5092358;28;20191;-69
2020/12/13 00:28:54;;;;;;;31.67;19.85;;;;;;;7.08;70.33;93951.44;5092424;28;20634;-65
2020/12/13 00:31:20;;;;;;;28.63;18.40;;;;;;;7.03;70.64;93959.25;5093926;28;20210;-66
2020/12/13 00:33:47;;;;;;;27.10;18.25;;;;;;;7.04;70.50;93960.03;5092254;28;20615;-65
2020/12/13 00:36:18;;;;;;;26.77;19.23;;;;;;;7.11;69.84;93963.97;5092538;28;20183;-67
2020/12/13 00:38:44;;;;;;;30.15;19.13;;;;;;;7.08;69.98;93972.28;5091857;28;20252;-65
2020/12/13 00:41:10;;;;;;;24.30;18.08;;;;;;;7.00;69.94;93975.41;5092376;28;20222;-64
2020/12/13 00:43:37;;;;;;;28.50;19.25;;;;;;;7.07;69.84;93978.53;5092011;28;20207;-64
2020/12/13 00:46:03;;;;;;;27.60;18.50;;;;;;;6.96;70.22;93963.91;5092070;28;20226;-66
2020/12/13 00:48:30;;;;;;;30.65;20.42;;;;;;;7.07;70.27;93967.34;5090639;28;20282;-67
2020/12/13 00:50:57;;;;;;;30.38;18.65;;;;;;;7.09;69.61;93962.66;5092266;28;20738;-66
2020/12/13 00:53:23;;;;;;;30.23;19.30;;;;;;;7.10;70.20;93959.78;5090113;28;20291;-65
2020/12/13 00:55:51;;;;;;;26.35;18.00;;;;;;;7.12;69.81;93962.91;5090987;28;20663;-67
2020/12/13 00:58:18;;;;;;;29.37;19.40;;;;;;;7.06;70.08;93969.16;5090374;28;20204;-66
2020/12/13 01:00:44;;;;;;;25.98;17.38;;;;;;;7.07;69.89;93965.53;5092093;28;20418;-65
2020/12/13 01:03:11;;;;;;;22.20;16.63;;;;;;;7.03;69.80;93964.47;5092058;28;20194;-67
2020/12/13 01:05:37;;;;;;;24.80;17.23;;;;;;;7.06;70.14;93963.94;5091372;28;20227;-66
2020/12/13 01:08:04;;;;;;;23.73;16.80;;;;;;;7.03;69.64;93967.06;5091667;28;20199;-67
2020/12/13 01:10:30;;;;;;;23.13;15.32;;;;;;;7.09;69.44;93965.25;5091602;28;20260;-68
2020/12/13 01:12:56;;;;;;;22.98;15.57;;;;;;;7.06;69.45;93968.38;5091576;28;20191;-66
2020/12/13 01:15:23;;;;;;;23.63;16.45;;;;;;;6.99;69.61;93968.59;5091232;28;20733;-68
2020/12/13 01:17:50;;;;;;;22.65;15.73;;;;;;;7.07;69.48;93970.72;5091539;28;20211;-67
2020/12/13 01:20:17;;;;;;;23.52;15.35;;;;;;;6.88;69.22;93961.78;5091318;28;20202;-67
2020/12/13 01:22:43;;;;;;;23.08;15.55;;;;;;;6.85;69.62;93966.72;5091437;28;20203;-66
2020/12/13 01:25:10;;;;;;;21.50;14.90;;;;;;;6.88;69.25;93972.22;5091197;28;20262;-67
2020/12/13 01:27:36;;;;;;;21.33;15.05;;;;;;;6.73;70.27;93979.94;5091434;28;20207;-66
2020/12/13 01:30:07;;;;;;;23.55;16.15;;;;;;;6.86;69.32;93983.94;5091246;28;20218;-65
2020/12/13 01:32:38;;;;;;;22.63;16.17;;;;;;;6.85;69.68;93977.94;5091292;28;20171;-66
2020/12/13 01:35:06;;;;;;;23.48;16.15;;;;;;;6.87;69.79;93978.47;5090889;28;20186;-66
2020/12/13 01:37:33;;;;;;;23.83;17.70;;;;;;;6.75;69.62;93951.09;5091172;28;20198;-65
2020/12/13 01:39:59;;;;;;;24.10;17.60;;;;;;;6.96;69.39;93973.53;5090704;28;20191;-66
2020/12/13 01:42:27;;;;;;;26.42;17.33;;;;;;;6.96;69.63;93984.75;5091209;28;20191;-67
2020/12/13 01:44:53;;;;;;;25.90;16.70;;;;;;;7.03;69.52;93974.88;5090998;28;20574;-67
2020/12/13 01:47:21;;;;;;;24.20;15.45;;;;;;;6.85;69.86;93972.72;5091315;28;20191;-66
2020/12/13 01:49:49;;;;;;;22.42;15.38;;;;;;;6.93;69.78;93974.81;5090789;28;20286;-65
2020/12/13 01:55:08;;;;;;;21.27;14.52;;;;;;;7.03;68.96;93964.47;5090523;28;20199;-65
2020/12/13 01:57:36;;;;;;;23.77;16.10;;;;;;;6.99;69.04;93979.03;5090829;28;20187;-65
2020/12/13 02:00:11;;;;;;;23.85;16.13;;;;;;;6.97;69.11;93970.69;5090225;28;20187;-65
2020/12/13 02:02:50;;;;;;;22.33;16.05;;;;;;;6.82;69.05;93968.03;5091168;28;20311;-65
2020/12/13 02:05:20;;;;;;;22.02;15.23;;;;;;;6.91;69.69;93971.72;5094720;28;20210;-66
2020/12/13 02:07:49;;;;;;;25.05;15.65;;;;;;;6.85;69.89;93966.72;5090965;28;20598;-66
2020/12/13 02:10:16;;;;;;;23.55;16.02;;;;;;;6.89;70.16;93973.78;5090199;28;20195;-65
2020/12/13 02:12:43;;;;;;;21.95;15.20;;;;;;;7.04;69.44;93966.00;5090790;28;20195;-64
2020/12/13 02:15:11;;;;;;;19.92;14.60;;;;;;;6.94;70.35;93973.81;5090136;28;20195;-66
2020/12/13 02:17:37;;;;;;;21.42;14.35;;;;;;;6.95;69.85;93977.97;5090240;28;20740;-66
2020/12/13 02:20:15;;;;;;;18.33;13.70;;;;;;;6.94;70.12;93965.19;5089955;28;20199;-65
2020/12/13 02:22:47;;;;;;;20.30;13.95;;;;;;;6.94;69.66;93971.19;5090476;28;20659;-65
2020/12/13 02:25:22;;;;;;;17.65;13.20;;;;;;;6.77;69.54;93939.34;5089903;28;20230;-64
2020/12/13 02:28:00;;;;;;;20.35;12.60;;;;;;;6.94;69.78;93979.00;5090479;28;20199;-67
2020/12/13 02:30:26;;;;;;;20.20;14.00;;;;;;;7.00;70.09;93975.41;5090067;28;20187;-66
2020/12/13 02:32:53;;;;;;;20.50;15.10;;;;;;;6.94;69.75;93971.19;5090256;28;20242;-65
2020/12/13 02:35:19;;;;;;;21.30;14.70;;;;;;;6.88;69.62;93981.84;5089475;28;20203;-66
2020/12/13 02:37:46;;;;;;;21.55;15.85;;;;;;;6.93;69.89;93985.25;5092032;28;20241;-64
2020/12/13 02:40:12;;;;;;;24.67;16.48;;;;;;;6.85;70.11;93977.16;5090230;28;20195;-67
2020/12/13 02:42:38;;;;;;;27.13;18.08;;;;;;;6.88;69.79;93993.03;5089893;28;20604;-67
2020/12/13 02:45:05;;;;;;;28.38;18.85;;;;;;;6.87;69.75;93970.66;5089340;28;20222;-67
2020/12/13 02:47:31;;;;;;;30.65;19.25;;;;;;;6.67;69.91;93954.94;5090318;28;20233;-64
2020/12/13 02:49:58;;;;;;;31.00;19.75;;;;;;;6.85;70.30;93984.97;5089644;28;20203;-65
2020/12/13 02:52:25;;;;;;;28.45;18.50;;;;;;;6.72;70.25;93977.59;5090202;28;20218;-67
2020/12/13 02:54:51;;;;;;;27.30;17.95;;;;;;;6.71;70.70;93987.25;5089112;28;20681;-66
2020/12/13 02:57:18;;;;;;;29.83;18.40;;;;;;;6.69;70.34;93986.72;5090168;28;20190;-66
2020/12/13 02:59:44;;;;;;;23.80;16.75;;;;;;;6.58;70.84;93981.69;5089038;28;20883;-66
2020/12/13 03:02:11;;;;;;;25.23;16.48;;;;;;;6.71;70.11;93982.03;5089596;28;20207;-68
2020/12/13 03:04:37;;;;;;;25.88;16.52;;;;;;;6.62;70.63;93993.97;5089343;28;20619;-64
2020/12/13 03:07:04;;;;;;;25.60;16.75;;;;;;;6.63;70.12;93995.53;5089972;28;20298;-65
2020/12/13 03:09:30;;;;;;;23.55;16.58;;;;;;;6.52;70.00;93983.50;5089345;28;20206;-65
2020/12/13 03:11:57;;;;;;;23.23;15.55;;;;;;;6.54;70.19;93997.03;5090197;28;20191;-67
2020/12/13 03:14:23;;;;;;;23.90;15.48;;;;;;;6.55;70.10;93998.59;5089621;28;20234;-66
2020/12/13 03:16:51;;;;;;;22.15;14.90;;;;;;;6.56;69.92;93999.38;5089361;28;20206;-65
2020/12/13 03:19:17;;;;;;;24.30;15.50;;;;;;;6.54;70.13;94001.44;5089140;28;20214;-66
2020/12/13 03:21:44;;;;;;;30.60;16.65;;;;;;;6.56;69.89;94004.59;5089764;28;20194;-65
2020/12/13 03:24:11;;;;;;;24.77;15.45;;;;;;;6.55;69.68;94003.81;5089105;28;20275;-67
2020/12/13 03:26:37;;;;;;;27.35;15.77;;;;;;;6.47;70.18;94006.09;5089682;28;20656;-66
2020/12/13 03:29:04;;;;;;;23.48;15.02;;;;;;;6.40;70.28;94005.53;5091688;28;20205;-65
2020/12/13 03:31:30;;;;;;;30.90;16.70;;;;;;;6.44;70.31;94006.63;5093658;28;20191;-66
2020/12/13 03:33:57;;;;;;;35.65;17.58;;;;;;;6.32;70.93;94009.38;5093015;28;20230;-66
2020/12/13 03:36:23;;;;;;;34.80;17.75;;;;;;;6.34;70.69;94006.53;5093846;28;20195;-67
2020/12/13 03:38:49;;;;;;;34.67;18.15;;;;;;;6.15;71.31;94008.75;5094867;28;20224;-66
2020/12/13 03:41:16;;;;;;;36.20;18.25;;;;;;;6.23;70.71;94003.09;5093966;28;20768;-68
2020/12/13 03:43:42;;;;;;;31.83;17.42;;;;;;;6.19;71.27;94015.00;5093282;28;20210;-68
2020/12/13 03:46:09;;;;;;;28.67;16.90;;;;;;;6.10;71.41;94004.31;5093167;28;20318;-68
2020/12/13 03:48:36;;;;;;;27.63;17.23;;;;;;;6.19;71.36;94012.41;5092948;28;20198;-67
2020/12/13 03:51:02;;;;;;;28.00;17.23;;;;;;;6.18;70.92;94003.06;5092181;28;20205;-69
2020/12/13 03:53:29;;;;;;;21.48;14.73;;;;;;;6.23;70.57;94000.47;5092618;28;20195;-67
2020/12/13 03:55:55;;;;;;;20.15;14.10;;;;;;;6.21;71.37;94007.75;5093467;28;20187;-64
2020/12/13 03:58:21;;;;;;;21.30;14.18;;;;;;;6.09;71.24;94014.97;5093085;28;20209;-66
2020/12/13 04:00:48;;;;;;;21.17;14.43;;;;;;;6.12;71.63;94014.44;5093372;28;20222;-67
2020/12/13 04:03:15;;;;;;;22.27;15.50;;;;;;;6.25;70.76;94008.81;5093050;28;20199;-65
2020/12/13 04:05:41;;;;;;;23.98;14.75;;;;;;;6.13;71.17;93998.59;5092832;28;20657;-65
2020/12/13 04:08:08;;;;;;;22.25;14.70;;;;;;;6.27;71.13;94011.19;5093238;28;20187;-67
2020/12/13 04:10:34;;;;;;;23.10;15.52;;;;;;;6.33;70.91;94010.97;5092436;28;20203;-64
2020/12/13 04:13:00;;;;;;;20.83;15.25;;;;;;;6.38;70.71;94016.19;5093025;28;20207;-65
2020/12/13 04:15:27;;;;;;;25.48;15.75;;;;;;;6.30;70.92;94014.06;5092649;28;20339;-64
2020/12/13 04:17:53;;;;;;;25.05;15.77;;;;;;;6.30;70.44;94016.66;5093110;28;20676;-64
2020/12/13 04:20:20;;;;;;;29.52;18.58;;;;;;;5.88;71.40;94028.81;5092426;28;20203;-66
2020/12/13 04:22:47;;;;;;;30.00;17.75;;;;;;;5.92;71.13;94012.47;5092992;28;20195;-65
2020/12/13 04:25:14;;;;;;;28.55;16.48;;;;;;;6.04;70.93;94027.91;5092370;28;20766;-65
2020/12/13 04:27:40;;;;;;;27.10;16.00;;;;;;;6.09;70.97;94025.34;5092917;28;20195;-65
2020/12/13 04:30:07;;;;;;;24.13;15.13;;;;;;;6.12;70.86;94028.25;5092886;28;20210;-64
2020/12/13 04:32:33;;;;;;;26.00;14.88;;;;;;;6.10;70.93;94029.50;5092463;28;20191;-65
2020/12/13 04:35:00;;;;;;;27.90;16.73;;;;;;;6.03;71.24;94034.94;5093045;28;20206;-65
2020/12/13 04:37:26;;;;;;;27.85;17.20;;;;;;;6.17;70.91;94027.47;5093036;28;20202;-68
2020/12/13 04:39:52;;;;;;;26.17;16.55;;;;;;;6.11;71.03;94036.31;5092171;28;20207;-68
2020/12/13 04:42:23;;;;;;;25.17;15.32;;;;;;;6.09;70.65;94009.75;5092977;28;20191;-67
2020/12/13 04:44:50;;;;;;;25.70;15.88;;;;;;;6.22;70.49;94035.34;5092052;28;20603;-70
2020/12/13 04:47:19;;;;;;;24.92;16.48;;;;;;;6.17;70.75;94043.09;5092739;28;20198;-66
2020/12/13 04:49:50;;;;;;;23.95;15.95;;;;;;;6.27;70.55;94042.38;5092045;28;20285;-67
2020/12/13 04:52:17;;;;;;;26.25;15.45;;;;;;;6.12;70.65;94045.66;5092112;28;20206;-67
2020/12/13 04:54:51;;;;;;;27.25;16.70;;;;;;;5.91;71.59;94054.31;5092289;28;20183;-67
2020/12/13 04:57:19;;;;;;;27.08;17.40;;;;;;;6.09;71.11;94053.97;5091639;28;20199;-66
2020/12/13 04:59:47;;;;;;;29.83;17.33;;;;;;;6.09;71.53;94041.72;5091695;28;20257;-68
2020/12/13 05:02:15;;;;;;;25.45;16.52;;;;;;;5.96;71.17;94036.16;5091964;28;20242;-67
2020/12/13 05:04:43;;;;;;;28.33;16.27;;;;;;;6.05;71.49;94042.47;5092072;28;20231;-68
2020/12/13 05:07:11;;;;;;;24.77;16.00;;;;;;;6.04;71.46;94053.91;5091514;28;20199;-67
2020/12/13 05:09:40;;;;;;;29.17;17.90;;;;;;;5.86;71.69;94036.06;5093050;28;20209;-67
2020/12/13 05:12:08;;;;;;;34.20;19.90;;;;;;;5.74;72.33;94048.41;5093667;28;20645;-66
2020/12/13 05:14:34;;;;;;;35.35;21.15;;;;;;;5.91;72.36;94056.94;5091401;28;20211;-68
2020/12/13 05:17:12;;;;;;;41.42;24.23;;;;;;;5.92;72.74;94055.88;5091779;28;20349;-66
2020/12/13 05:19:41;;;;;;;43.85;24.63;;;;;;;5.86;72.76;94052.44;5091267;28;20210;-68
2020/12/13 05:22:08;;;;;;;43.55;25.55;;;;;;;5.87;72.76;94048.03;5091756;28;20350;-67
2020/12/13 05:24:36;;;;;;;42.40;26.50;;;;;;;5.59;73.31;94030.84;5091070;28;20245;-66
2020/12/13 05:27:05;;;;;;;43.08;26.48;;;;;;;5.71;73.24;94043.72;5091359;28;20230;-65
2020/12/13 05:29:34;;;;;;;45.67;27.23;;;;;;;5.46;74.12;94057.22;5091005;28;20236;-66
2020/12/13 05:32:17;;;;;;;48.70;28.35;;;;;;;5.11;74.86;94030.84;5091323;28;20294;-64
2020/12/13 05:34:45;;;;;;;48.38;27.98;;;;;;;5.28;74.84;94041.97;5091116;28;20203;-65
2020/12/13 05:37:16;;;;;;;52.03;30.27;;;;;;;5.32;74.91;94055.25;5091937;28;20210;-68
2020/12/13 05:39:53;;;;;;;48.83;29.92;;;;;;;5.49;74.20;94059.31;5090684;28;20605;-67
2020/12/13 05:42:39;;;;;;;53.13;31.30;;;;;;;5.52;74.26;94063.25;5091010;28;20186;-66
2020/12/13 05:48:03;;;;;;;53.35;33.63;;;;;;;5.63;73.38;94073.53;5090804;28;20665;-66
2020/12/13 05:53:05;;;;;;;53.20;31.42;;;;;;;5.76;73.32;94077.53;5091291;28;20175;-67
2020/12/13 05:55:31;;;;;;;56.53;32.90;;;;;;;5.74;73.09;94079.59;5091091;28;20187;-67
2020/12/13 05:57:58;;;;;;;59.47;35.10;;;;;;;5.72;73.15;94085.03;5089518;28;20191;-66
2020/12/13 06:00:26;;;;;;;59.05;34.28;;;;;;;5.78;72.93;94091.09;5090780;28;20282;-66
2020/12/13 06:02:54;;;;;;;58.15;31.77;;;;;;;5.58;73.52;94101.25;5091143;28;20203;-65
2020/12/13 06:05:22;;;;;;;58.97;33.63;;;;;;;5.40;74.43;94091.19;5090473;28;20238;-65
2020/12/13 06:07:50;;;;;;;64.20;35.25;;;;;;;5.42;74.80;94102.13;5090786;28;20201;-66
2020/12/13 06:10:24;;;;;;;67.30;35.22;;;;;;;5.50;74.40;94096.50;5090093;28;20199;-66
2020/12/13 06:13:01;;;;;;;136.60;64.47;;;;;;;5.67;73.51;94095.41;5090331;28;20715;-66
2020/12/13 06:15:30;;;;;;;91.28;45.05;;;;;;;5.74;73.52;94103.00;5090190;28;20195;-66
2020/12/13 06:18:00;;;;;;;77.20;39.63;;;;;;;5.83;73.06;94104.94;5090747;28;20191;-65
2020/12/13 06:20:27;;;;;;;63.17;35.28;;;;;;;5.76;73.03;94108.72;5090202;28;20755;-64
2020/12/13 06:22:55;;;;;;;56.40;31.77;;;;;;;5.88;72.65;94112.00;5090601;28;20222;-64
2020/12/13 06:25:22;;;;;;;50.92;29.92;;;;;;;5.89;72.73;94114.34;5089872;28;20207;-65
2020/12/13 06:27:51;;;;;;;54.10;31.27;;;;;;;5.91;72.21;94121.94;5090043;28;20191;-66
2020/12/13 06:30:20;;;;;;;59.38;31.75;;;;;;;6.07;72.39;94115.84;5089763;28;20712;-66
2020/12/13 06:32:51;;;;;;;54.05;31.55;;;;;;;6.01;72.28;94111.59;5089981;28;20223;-65
2020/12/13 06:38:15;;;;;;;53.78;30.55;;;;;;;6.02;72.69;94113.19;5090179;28;20676;-66
2020/12/13 06:40:43;;;;;;;56.33;31.85;;;;;;;6.03;72.45;94110.34;5089637;28;20211;-66
2020/12/13 06:43:09;;;;;;;57.00;32.50;;;;;;;6.05;72.67;94117.91;5090983;28;20199;-65
2020/12/13 06:45:36;;;;;;;50.65;30.50;;;;;;;6.12;72.17;94128.88;5089999;28;20235;-67
2020/12/13 06:48:03;;;;;;;54.30;33.40;;;;;;;6.09;72.76;94124.19;5089921;28;20668;-64
2020/12/13 06:50:29;;;;;;;58.65;33.67;;;;;;;6.26;72.56;94126.66;5086370;28;20583;-63
2020/12/13 06:52:56;;;;;;;63.90;37.30;;;;;;;6.31;72.30;94130.09;5089151;28;20210;-63
2020/12/13 06:55:32;;;;;;;86.03;51.80;;;;;;;6.36;72.39;94132.75;5089693;28;20214;-63
2020/12/13 06:58:03;;;;;;;70.05;43.42;;;;;;;6.54;71.76;94137.56;5089837;28;20199;-64
2020/12/13 07:00:48;;;;;;;75.22;46.55;;;;;;;6.59;71.59;94129.00;5089381;28;20188;-67
2020/12/13 07:03:25;;;;;;;82.65;49.92;;;;;;;6.49;71.47;94129.72;5084701;28;20195;-65
2020/12/13 07:05:58;;;;;;;182.00;112.85;;;;;;;6.45;71.99;94139.06;5088014;28;20218;-68
2020/12/13 07:08:27;;;;;;;114.95;74.32;;;;;;;6.50;72.09;94128.69;5089036;28;20215;-69
2020/12/13 07:10:54;;;;;;;148.57;95.45;;;;;;;6.45;72.28;94139.06;5088805;28;20707;-66
2020/12/13 07:13:23;;;;;;;141.35;87.47;;;;;;;6.44;71.85;94131.50;5088659;28;20195;-64
2020/12/13 07:18:26;;;;;;;155.55;98.20;;;;;;;6.57;71.25;94142.28;5088267;28;20231;-68
2020/12/13 07:20:55;;;;;;;153.38;96.07;;;;;;;6.50;71.40;94136.50;5088738;28;20209;-67
2020/12/13 07:23:21;;;;;;;166.40;98.07;;;;;;;6.45;71.50;94144.28;5084435;28;20194;-67
2020/12/13 07:25:48;;;;;;;147.93;93.68;;;;;;;6.49;71.36;94150.56;5088023;28;20309;-67
2020/12/13 07:28:15;;;;;;;136.18;83.75;;;;;;;6.54;71.58;94170.63;5088916;28;20203;-69
2020/12/13 07:30:42;;;;;;;101.05;61.60;;;;;;;6.56;70.90;94166.75;5087318;28;20270;-65
2020/12/13 07:33:08;;;;;;;104.03;65.53;;;;;;;6.41;71.94;94168.41;5087375;28;20230;-67
2020/12/13 07:35:35;;;;;;;90.75;55.80;;;;;;;6.46;71.90;94169.25;5086706;28;20195;-68
2020/12/13 07:38:02;;;;;;;88.50;55.30;;;;;;;6.55;71.73;94174.81;5082511;28;20199;-66
2020/12/13 07:40:29;;;;;;;87.57;54.65;;;;;;;6.68;70.67;94185.56;5087679;28;20179;-65
2020/12/13 07:43:01;;;;;;;83.85;50.90;;;;;;;6.47;71.00;94178.63;5088673;28;20222;-72
2020/12/13 07:45:28;;;;;;;92.85;55.88;;;;;;;6.43;70.98;94182.75;5088422;28;20305;-67
2020/12/13 07:48:02;;;;;;;91.22;53.83;;;;;;;6.31;70.50;94192.53;5087903;28;20187;-68
2020/12/13 07:50:43;;;;;;;72.35;44.33;;;;;;;6.35;70.21;94196.19;5087144;28;20203;-67
2020/12/13 07:53:09;;;;;;;51.80;34.05;;;;;;;6.43;70.12;94193.16;5087670;28;20248;-69
2020/12/13 07:55:42;;;;;;;87.35;57.75;;;;;;;6.25;70.42;94187.53;5083341;28;20199;-67
2020/12/13 07:58:09;;;;;;;44.53;27.92;;;;;;;6.23;70.50;94185.16;5088463;28;20254;-67
2020/12/13 08:00:35;;;;;;;41.40;25.48;;;;;;;6.24;70.34;94202.34;5086643;28;20199;-67
2020/12/13 08:03:04;;;;;;;35.00;25.23;;;;;;;6.30;70.47;94209.16;5088508;28;20298;-67
2020/12/13 08:05:31;;;;;;;29.27;20.83;;;;;;;6.36;70.37;94208.19;5087550;28;20268;-68
2020/12/13 08:08:01;;;;;;;28.63;19.85;;;;;;;6.31;70.34;94221.16;5088152;28;20195;-69
2020/12/13 08:10:28;;;;;;;26.58;18.17;;;;;;;6.23;70.51;94226.78;5087830;28;20190;-69
2020/12/13 08:12:56;;;;;;;21.00;15.20;;;;;;;6.33;70.46;94228.72;5088936;28;20188;-68
2020/12/13 08:15:22;;;;;;;20.20;13.95;;;;;;;6.27;69.96;94225.28;5090960;28;20652;-65
2020/12/13 08:18:04;;;;;;;22.80;14.38;;;;;;;6.48;69.83;94232.25;5094566;28;20191;-69
2020/12/13 08:20:35;;;;;;;23.00;14.77;;;;;;;6.73;68.70;94219.44;5091624;28;20180;-67
2020/12/13 08:23:02;;;;;;;25.75;16.52;;;;;;;6.76;69.05;94212.97;5091654;28;20206;-66
2020/12/13 08:25:30;;;;;;;29.20;17.70;;;;;;;6.72;68.48;94204.88;5091433;28;20844;-69
2020/12/13 08:27:59;;;;;;;30.13;19.02;;;;;;;6.86;68.75;94203.41;5090502;28;20567;-67
2020/12/13 08:30:26;;;;;;;42.10;24.08;;;;;;;7.01;68.05;94195.72;5091349;28;20202;-68
2020/12/13 08:32:58;;;;;;;42.30;23.88;;;;;;;6.96;68.05;94176.69;5090679;28;20223;-67
2020/12/13 08:35:32;;;;;;;44.58;25.33;;;;;;;7.11;67.85;94201.03;5091359;28;20191;-68
2020/12/13 08:38:01;;;;;;;42.10;23.50;;;;;;;6.60;68.88;94209.47;5092339;28;20175;-68
2020/12/13 08:40:34;;;;;;;40.78;23.90;;;;;;;6.78;68.35;94208.31;5091869;28;20249;-67
2020/12/13 08:43:00;;;;;;;40.15;24.52;;;;;;;6.95;68.99;94212.34;5092068;28;20294;-69
2020/12/13 08:45:27;;;;;;;42.22;24.58;;;;;;;6.86;68.63;94208.63;5091467;28;20252;-69
2020/12/13 08:48:11;;;;;;;49.40;28.83;;;;;;;7.13;68.80;94206.75;5091677;28;20191;-68
2020/12/13 08:50:42;;;;;;;48.80;29.65;;;;;;;7.30;67.84;94218.84;5091423;28;20686;-69
2020/12/13 08:53:23;;;;;;;46.42;27.80;;;;;;;7.40;68.74;94218.91;5058232;28;20290;-69
2020/12/13 08:56:06;;;;;;;53.65;30.50;;;;;;;7.51;68.21;94230.97;5091931;28;20199;-68
2020/12/13 08:58:51;;;;;;;54.65;30.83;;;;;;;7.39;67.72;94222.56;5091343;28;20195;-69
2020/12/13 09:01:27;;;;;;;53.78;32.78;;;;;;;7.28;67.96;94226.13;5091997;28;20187;-68
2020/12/13 09:03:57;;;;;;;52.40;31.15;;;;;;;7.29;67.89;94222.47;5089887;28;20194;-67
2020/12/13 09:06:32;;;;;;;57.50;32.47;;;;;;;7.31;68.17;94215.19;5091735;28;20629;-67
2020/12/13 09:09:12;;;;;;;61.38;36.53;;;;;;;7.25;68.07;94226.63;5091007;28;20315;-69
2020/12/13 09:11:39;;;;;;;63.42;36.78;;;;;;;7.04;68.59;94208.25;5091947;28;20191;-69
2020/12/13 09:14:06;;;;;;;66.45;37.15;;;;;;;7.37;67.92;94215.00;5091094;28;20294;-67
2020/12/13 09:16:34;;;;;;;64.78;38.10;;;;;;;7.32;68.50;94216.78;5091259;28;20205;-69
2020/12/13 09:19:09;;;;;;;69.28;39.67;;;;;;;7.37;68.82;94215.00;5090999;28;20195;-67
2020/12/13 09:21:58;;;;;;;69.60;39.08;;;;;;;7.60;67.85;94211.19;5090942;28;20263;-68
2020/12/13 09:24:32;;;;;;;70.93;41.47;;;;;;;7.50;68.18;94218.97;5090758;28;20619;-67
2020/12/13 09:27:07;;;;;;;66.57;37.50;;;;;;;7.56;67.66;94217.94;5089714;28;20231;-67
2020/12/13 09:29:36;;;;;;;63.65;37.47;;;;;;;7.56;67.71;94212.72;5090639;28;20199;-69
2020/12/13 09:32:07;;;;;;;63.75;37.22;;;;;;;7.71;68.12;94216.22;5091070;28;20191;-68
2020/12/13 09:34:33;;;;;;;62.95;35.83;;;;;;;7.51;67.64;94207.50;5090048;28;20237;-70
2020/12/13 09:37:00;;;;;;;60.65;35.25;;;;;;;7.67;67.85;94209.94;5091094;28;20211;-69
2020/12/13 09:39:30;;;;;;;62.90;34.35;;;;;;;7.68;67.19;94221.16;5090555;28;20279;-67
2020/12/13 09:41:57;;;;;;;60.72;33.92;;;;;;;7.67;68.23;94209.13;5091064;28;20263;-68
2020/12/13 09:44:24;;;;;;;55.60;34.28;;;;;;;7.80;67.79;94213.91;5090189;28;20966;-68
2020/12/13 09:46:53;;;;;;;59.25;33.97;;;;;;;7.45;68.02;94216.31;5089756;28;20226;-70
2020/12/13 09:49:21;;;;;;;58.28;35.08;;;;;;;7.50;68.13;94214.53;5090211;28;20261;-67
2020/12/13 09:51:48;;;;;;;60.45;34.83;;;;;;;7.57;69.65;94214.31;5090317;28;20199;-64
2020/12/13 09:54:15;;;;;;;57.13;34.50;;;;;;;7.72;68.09;94201.38;5090178;28;20221;-65
2020/12/13 09:56:41;;;;;;;59.10;34.28;;;;;;;8.04;69.16;94209.84;5089022;28;20191;-63
2020/12/13 09:59:08;;;;;;;51.30;30.77;;;;;;;7.77;67.28;94202.13;5089439;28;20211;-67
2020/12/13 10:01:35;;;;;;;52.72;32.03;;;;;;;7.88;67.33;94190.72;5090056;28;20532;-65
2020/12/13 10:04:02;;;;;;;54.28;32.78;;;;;;;7.76;67.44;94197.19;5089405;28;20269;-63
2020/12/13 10:06:53;;;;;;;54.45;33.22;;;;;;;7.85;67.04;94191.25;5090000;28;20262;-67
2020/12/13 10:09:19;;;;;;;45.30;29.42;;;;;;;8.11;66.85;94185.06;5090043;28;20596;-67
2020/12/13 10:11:46;;;;;;;49.42;28.48;;;;;;;8.02;66.01;94164.94;5088855;28;20209;-65
2020/12/13 10:14:14;;;;;;;43.73;28.03;;;;;;;8.48;65.13;94181.53;5089338;28;20641;-68
2020/12/13 10:16:43;;;;;;;48.77;31.20;;;;;;;8.66;65.21;94187.03;5089711;28;20511;-68
2020/12/13 10:19:10;;;;;;;50.25;30.73;;;;;;;8.46;65.16;94171.34;5089286;28;20433;-69
2020/12/13 10:21:37;;;;;;;48.05;31.05;;;;;;;8.60;65.75;94182.84;5089979;28;20203;-66
2020/12/13 10:24:05;;;;;;;51.25;32.95;;;;;;;8.36;65.57;94154.88;5089117;28;20290;-67
2020/12/13 10:26:35;;;;;;;55.53;34.72;;;;;;;8.67;65.08;94177.34;5089997;28;20318;-69
2020/12/13 10:29:03;;;;;;;55.10;35.47;;;;;;;8.85;64.81;94190.69;5089896;28;20195;-67
2020/12/13 10:31:35;;;;;;;58.83;35.80;;;;;;;8.70;64.20;94187.28;5090174;28;20210;-67
2020/12/13 10:34:06;;;;;;;54.03;36.08;;;;;;;8.91;64.40;94192.25;5089404;28;20317;-69
2020/12/13 10:36:34;;;;;;;50.60;33.47;;;;;;;8.86;63.93;94187.03;5088972;28;20195;-65
2020/12/13 10:39:03;;;;;;;51.93;34.77;;;;;;;9.09;63.76;94176.03;5089343;28;20435;-63
2020/12/13 10:41:31;;;;;;;82.68;55.65;;;;;;;9.18;62.78;94174.47;5087533;28;20429;-62
2020/12/13 10:43:58;;;;;;;119.43;79.00;;;;;;;9.44;62.90;94166.56;5087814;28;20700;-62
2020/12/13 10:46:26;;;;;;;52.10;34.50;;;;;;;9.90;62.13;94167.97;5088099;28;20468;-65
2020/12/13 10:48:53;;;;;;;47.03;29.10;;;;;;;9.88;63.69;94165.66;5087633;28;20486;-63
2020/12/13 10:51:20;;;;;;;39.23;24.77;;;;;;;9.75;60.53;94168.03;5087821;28;20951;-64
2020/12/13 10:53:47;;;;;;;36.10;21.00;;;;;;;9.78;60.53;94162.28;5085400;28;20481;-65
2020/12/13 10:56:14;;;;;;;28.47;20.00;;;;;;;10.00;59.89;94170.53;5089280;28;20494;-64
2020/12/13 10:58:43;;;;;;;29.77;21.30;;;;;;;10.33;59.15;94175.13;5088993;28;20460;-66
2020/12/13 11:01:11;;;;;;;30.87;20.80;;;;;;;10.09;59.67;94172.38;5089288;28;20981;-64
2020/12/13 11:03:38;;;;;;;37.67;26.57;;;;;;;10.38;58.95;94167.25;5090681;28;20437;-67
2020/12/13 11:06:07;;;;;;;41.70;27.90;;;;;;;9.75;59.38;94153.13;5091623;28;20564;-62
2020/12/13 11:08:35;;;;;;;36.93;25.73;;;;;;;10.09;59.48;94174.22;5088763;28;20906;-66
2020/12/13 11:11:02;;;;;;;37.70;25.97;;;;;;;9.67;59.84;94173.84;5089302;28;20472;-67
2020/12/13 11:13:29;;;;;;;39.03;25.70;;;;;;;9.78;60.24;94178.00;5072123;28;20576;-68
2020/12/13 11:15:55;;;;;;;78.13;51.23;;;;;;;9.49;60.99;94174.41;5068818;28;20453;-65
2020/12/13 11:18:22;;;;;;;153.50;105.43;;;;;;;9.60;60.77;94176.72;5068360;28;20932;-66
2020/12/13 11:20:48;;;;;;;32.90;20.57;;;;;;;9.52;60.70;94172.06;5070045;28;20491;-63
2020/12/13 11:23:15;;;;;;;32.70;22.63;;;;;;;9.61;60.42;94180.13;5068845;28;20963;-67
2020/12/13 11:25:41;;;;;;;32.47;22.43;;;;;;;9.63;60.87;94172.81;5068186;28;20492;-64
2020/12/13 11:28:08;;;;;;;36.93;24.70;;;;;;;9.70;60.60;94168.06;5068252;28;20434;-68
2020/12/13 11:30:35;;;;;;;38.87;25.53;;;;;;;9.41;60.85;94167.09;5085482;28;20440;-64
2020/12/13 11:33:02;;;;;;;37.30;26.37;;;;;;;9.16;61.63;94162.69;5088638;28;20669;-63
2020/12/13 11:35:28;;;;;;;36.53;23.07;;;;;;;9.08;62.27;94163.25;5088325;28;20995;-66
2020/12/13 11:37:55;;;;;;;37.07;24.07;;;;;;;9.29;62.20;94169.22;5088452;28;21039;-66
2020/12/13 11:40:21;;;;;;;42.63;25.60;;;;;;;8.83;62.33;94165.88;5088209;28;20488;-67
2020/12/13 11:42:47;;;;;;;34.67;24.00;;;;;;;8.92;63.02;94165.06;5088301;28;20428;-64
2020/12/13 11:45:14;;;;;;;39.37;24.13;;;;;;;8.83;63.48;94161.41;5087905;28;20457;-64